createdAt,value
2023-06-13T00:00:51.000Z,0
2023-06-13T00:02:06.000Z,0
2023-06-13T00:03:23.000Z,0
2023-06-13T00:04:39.000Z,0
2023-06-13T00:05:55.000Z,0
2023-06-13T00:07:12.000Z,0
2023-06-13T00:08:28.000Z,0
2023-06-13T00:09:44.000Z,0
2023-06-13T00:11:00.000Z,0
2023-06-13T00:12:17.000Z,0
2023-06-13T00:13:33.000Z,0
2023-06-13T00:14:49.000Z,0
2023-06-13T00:16:06.000Z,0
2023-06-13T00:17:22.000Z,0
2023-06-13T00:18:37.000Z,0
2023-06-13T00:19:53.000Z,0
2023-06-13T00:21:10.000Z,0
2023-06-13T00:22:26.000Z,0
2023-06-13T00:23:42.000Z,0
2023-06-13T00:24:59.000Z,0
2023-06-13T00:26:15.000Z,0
2023-06-13T00:27:31.000Z,0
2023-06-13T00:28:47.000Z,0
2023-06-13T00:30:04.000Z,0
2023-06-13T00:31:20.000Z,0
2023-06-13T00:32:36.000Z,0
2023-06-13T00:33:53.000Z,0
2023-06-13T00:35:08.000Z,0
2023-06-13T00:36:24.959Z,0
2023-06-13T00:37:41.245Z,0
2023-06-13T00:38:57.000Z,0
2023-06-13T00:40:13.000Z,0
2023-06-13T00:41:29.000Z,0
2023-06-13T00:42:46.000Z,0
2023-06-13T00:44:02.000Z,0
2023-06-13T00:45:18.000Z,0
2023-06-13T00:46:35.000Z,0
2023-06-13T00:47:51.000Z,0
2023-06-13T00:49:07.000Z,0
2023-06-13T00:50:23.000Z,0
2023-06-13T00:51:39.000Z,0
2023-06-13T00:52:55.000Z,0
2023-06-13T00:54:11.000Z,0
2023-06-13T00:55:28.000Z,0
2023-06-13T00:56:44.000Z,0
2023-06-13T00:58:00.000Z,0
2023-06-13T00:59:15.000Z,0
2023-06-13T01:00:32.000Z,0
2023-06-13T01:01:48.000Z,0
2023-06-13T01:03:04.000Z,0
2023-06-13T01:04:21.000Z,0
2023-06-13T01:05:37.000Z,0
2023-06-13T01:06:53.000Z,0
2023-06-13T01:08:09.000Z,0
2023-06-13T01:09:26.000Z,0
2023-06-13T01:10:42.000Z,0
2023-06-13T01:11:58.000Z,0
2023-06-13T01:13:15.000Z,0
2023-06-13T01:14:31.000Z,0
2023-06-13T01:15:46.917Z,0
2023-06-13T01:17:02.000Z,0
2023-06-13T01:18:19.000Z,0
2023-06-13T01:19:35.000Z,0
2023-06-13T01:20:51.000Z,0
2023-06-13T01:22:08.000Z,0
2023-06-13T01:23:24.000Z,0
2023-06-13T01:24:40.000Z,0
2023-06-13T01:25:56.000Z,0
2023-06-13T01:27:13.000Z,0
2023-06-13T01:28:29.771Z,0
2023-06-13T01:29:45.000Z,0
2023-06-13T01:31:02.000Z,0
2023-06-13T01:32:17.000Z,0
2023-06-13T01:33:33.000Z,0
2023-06-13T01:34:49.000Z,0
2023-06-13T01:36:06.000Z,0
2023-06-13T01:37:22.000Z,0
2023-06-13T01:38:38.000Z,0
2023-06-13T01:39:55.000Z,0
2023-06-13T01:41:11.000Z,0
2023-06-13T01:42:27.000Z,0
2023-06-13T01:43:43.000Z,0
2023-06-13T01:45:00.000Z,0
2023-06-13T01:46:16.000Z,0
2023-06-13T01:47:32.000Z,0
2023-06-13T01:48:48.000Z,0
2023-06-13T01:50:04.000Z,0
2023-06-13T01:51:20.000Z,0
2023-06-13T01:52:37.000Z,0
2023-06-13T01:53:53.000Z,0
2023-06-13T01:55:09.000Z,0
2023-06-13T01:56:25.000Z,0
2023-06-13T01:57:42.000Z,0
2023-06-13T01:58:58.000Z,0
2023-06-13T02:00:14.000Z,0
2023-06-13T02:01:31.000Z,0
2023-06-13T02:02:47.000Z,0
2023-06-13T02:04:03.000Z,0
2023-06-13T02:05:18.000Z,0
2023-06-13T02:06:35.000Z,0
2023-06-13T02:07:51.000Z,0
2023-06-13T02:09:07.000Z,0
2023-06-13T02:10:24.000Z,0
2023-06-13T02:11:40.000Z,0
2023-06-13T02:12:56.000Z,0
2023-06-13T02:14:12.000Z,0
2023-06-13T02:15:29.000Z,0
2023-06-13T02:16:45.000Z,0
2023-06-13T02:18:01.000Z,0
2023-06-13T02:19:18.000Z,0
2023-06-13T02:20:34.000Z,0
2023-06-13T02:21:49.000Z,0
2023-06-13T02:23:05.000Z,0
2023-06-13T02:24:22.000Z,1
2023-06-13T02:25:38.000Z,0
2023-06-13T02:26:54.000Z,0
2023-06-13T02:28:10.000Z,1
2023-06-13T02:29:27.000Z,1
2023-06-13T02:30:43.000Z,1
2023-06-13T02:31:59.991Z,0
2023-06-13T02:33:16.000Z,0
2023-06-13T02:34:32.000Z,2
2023-06-13T02:35:48.000Z,1
2023-06-13T02:37:04.000Z,1
2023-06-13T02:38:20.000Z,0
2023-06-13T02:39:36.000Z,2
2023-06-13T02:40:52.000Z,1
2023-06-13T02:42:08.000Z,1
2023-06-13T02:43:25.000Z,2
2023-06-13T02:44:41.000Z,8
2023-06-13T02:45:57.000Z,5
2023-06-13T02:47:13.000Z,6
2023-06-13T02:48:29.000Z,7
2023-06-13T02:49:46.000Z,5
2023-06-13T02:51:02.000Z,8
2023-06-13T02:52:18.000Z,13
2023-06-13T02:53:34.000Z,12
2023-06-13T02:54:50.000Z,14
2023-06-13T02:56:06.000Z,16
2023-06-13T02:57:22.000Z,18
2023-06-13T02:58:38.000Z,23
2023-06-13T02:59:55.000Z,28
2023-06-13T03:01:11.000Z,29
2023-06-13T03:02:27.000Z,31
2023-06-13T03:03:43.000Z,41
2023-06-13T03:04:59.000Z,44
2023-06-13T03:06:16.000Z,47
2023-06-13T03:07:32.000Z,55
2023-06-13T03:08:48.000Z,59
2023-06-13T03:10:04.000Z,68
2023-06-13T03:11:20.000Z,74
2023-06-13T03:12:36.000Z,78
2023-06-13T03:13:52.000Z,91
2023-06-13T03:15:08.000Z,100
2023-06-13T03:16:25.000Z,107
2023-06-13T03:17:41.000Z,117
2023-06-13T03:18:57.000Z,127
2023-06-13T03:20:13.000Z,134
2023-06-13T03:21:30.000Z,148
2023-06-13T03:22:46.499Z,158
2023-06-13T03:24:02.000Z,172
2023-06-13T03:25:18.000Z,181
2023-06-13T03:26:34.000Z,193
2023-06-13T03:27:50.000Z,207
2023-06-13T03:29:06.000Z,219
2023-06-13T03:30:22.000Z,232
2023-06-13T03:31:38.000Z,246
2023-06-13T03:32:55.000Z,262
2023-06-13T03:34:11.000Z,276
2023-06-13T03:35:27.000Z,289
2023-06-13T03:36:43.000Z,299
2023-06-13T03:38:00.000Z,316
2023-06-13T03:39:16.000Z,333
2023-06-13T03:40:32.000Z,351
2023-06-13T03:41:48.000Z,364
2023-06-13T03:43:05.000Z,382
2023-06-13T03:44:20.000Z,397
2023-06-13T03:45:36.000Z,415
2023-06-13T03:46:52.000Z,435
2023-06-13T03:48:08.000Z,450
2023-06-13T03:49:25.000Z,463
2023-06-13T03:50:41.000Z,481
2023-06-13T03:51:57.000Z,497
2023-06-13T03:53:13.000Z,512
2023-06-13T03:54:30.000Z,527
2023-06-13T03:55:46.000Z,547
2023-06-13T03:57:02.000Z,567
2023-06-13T03:58:18.000Z,584
2023-06-13T04:00:51.554Z,617
2023-06-13T04:02:06.000Z,633
2023-06-13T04:03:22.000Z,645
2023-06-13T04:04:38.000Z,660
2023-06-13T04:05:55.000Z,679
2023-06-13T04:07:11.000Z,697
2023-06-13T04:08:27.000Z,719
2023-06-13T04:09:43.000Z,730
2023-06-13T04:11:00.416Z,749
2023-06-13T04:12:16.000Z,768
2023-06-13T04:13:32.000Z,787
2023-06-13T04:14:48.000Z,802
2023-06-13T04:16:05.000Z,822
2023-06-13T04:17:21.000Z,834
2023-06-13T04:18:36.000Z,859
2023-06-13T04:19:52.000Z,868
2023-06-13T04:21:09.000Z,889
2023-06-13T04:22:25.000Z,908
2023-06-13T04:23:41.000Z,929
2023-06-13T04:24:57.000Z,938
2023-06-13T04:26:13.000Z,962
2023-06-13T04:27:30.000Z,977
2023-06-13T04:28:46.000Z,989
2023-06-13T04:30:02.000Z,1010
2023-06-13T04:31:18.000Z,1024
2023-06-13T04:32:35.000Z,1041
2023-06-13T04:33:51.000Z,1060
2023-06-13T04:35:06.000Z,1074
2023-06-13T04:36:23.096Z,1092
2023-06-13T04:37:39.000Z,1105
2023-06-13T04:38:55.000Z,1125
2023-06-13T04:40:11.000Z,1132
2023-06-13T04:41:27.000Z,1156
2023-06-13T04:42:44.000Z,1173
2023-06-13T04:44:00.000Z,1186
2023-06-13T04:45:16.000Z,1208
2023-06-13T04:46:32.000Z,1230
2023-06-13T04:47:48.000Z,1239
2023-06-13T04:49:05.000Z,1254
2023-06-13T04:50:21.000Z,1268
2023-06-13T04:51:36.910Z,1281
2023-06-13T04:52:52.000Z,1297
2023-06-13T04:54:09.000Z,1315
2023-06-13T04:55:25.000Z,1334
2023-06-13T04:56:41.000Z,1345
2023-06-13T04:57:57.000Z,1362
2023-06-13T04:59:14.318Z,1386
2023-06-13T05:00:30.000Z,1397
2023-06-13T05:01:46.000Z,1417
2023-06-13T05:03:02.000Z,1426
2023-06-13T05:04:19.000Z,1444
2023-06-13T05:05:35.000Z,1455
2023-06-13T05:06:51.000Z,1471
2023-06-13T05:08:06.000Z,1488
2023-06-13T05:09:22.000Z,1503
2023-06-13T05:10:39.000Z,1530
2023-06-13T05:11:55.000Z,1541
2023-06-13T05:13:11.000Z,1563
2023-06-13T05:14:26.000Z,1581
2023-06-13T05:15:43.000Z,1595
2023-06-13T05:16:59.000Z,1613
2023-06-13T05:18:15.000Z,1623
2023-06-13T05:19:31.000Z,1645
2023-06-13T05:20:48.000Z,1655
2023-06-13T05:22:04.000Z,1680
2023-06-13T05:23:20.000Z,1709
2023-06-13T05:24:36.000Z,1730
2023-06-13T05:25:52.000Z,1743
2023-06-13T05:27:09.000Z,1752
2023-06-13T05:28:25.000Z,1765
2023-06-13T05:29:41.935Z,1785
2023-06-13T05:30:56.000Z,1804
2023-06-13T05:32:13.000Z,1826
2023-06-13T05:33:29.000Z,1849
2023-06-13T05:34:45.000Z,1874
2023-06-13T05:36:01.000Z,1891
2023-06-13T05:37:18.000Z,1913
2023-06-13T05:38:34.000Z,1931
2023-06-13T05:39:50.000Z,1945
2023-06-13T05:41:06.000Z,1959
2023-06-13T05:42:23.000Z,1984
2023-06-13T05:43:39.000Z,2006
2023-06-13T05:44:55.000Z,2027
2023-06-13T05:46:11.000Z,2050
2023-06-13T05:47:26.000Z,2067
2023-06-13T05:48:43.000Z,2088
2023-06-13T05:49:59.000Z,2115
2023-06-13T05:51:15.000Z,2158
2023-06-13T05:52:32.178Z,2179
2023-06-13T05:53:48.000Z,2187
2023-06-13T05:55:04.000Z,2222
2023-06-13T05:56:20.000Z,2230
2023-06-13T05:57:36.000Z,2251
2023-06-13T05:58:53.000Z,2272
2023-06-13T06:00:09.000Z,2282
2023-06-13T06:01:25.000Z,2308
2023-06-13T06:02:41.000Z,2326
2023-06-13T06:03:57.000Z,2356
2023-06-13T06:05:13.000Z,2376
2023-06-13T06:06:29.000Z,2384
2023-06-13T06:07:45.000Z,2412
2023-06-13T06:09:01.000Z,2435
2023-06-13T06:10:18.000Z,2459
2023-06-13T06:11:34.000Z,2474
2023-06-13T06:12:50.000Z,2493
2023-06-13T06:14:06.000Z,2525
2023-06-13T06:15:23.000Z,2534
2023-06-13T06:16:39.000Z,2588
2023-06-13T06:17:55.000Z,2611
2023-06-13T06:19:12.083Z,2645
2023-06-13T06:20:27.000Z,2661
2023-06-13T06:21:43.000Z,2682
2023-06-13T06:22:59.000Z,2706
2023-06-13T06:24:15.000Z,2741
2023-06-13T06:25:32.000Z,2774
2023-06-13T06:26:48.000Z,2810
2023-06-13T06:28:04.000Z,2858
2023-06-13T06:29:20.000Z,2872
2023-06-13T06:30:36.000Z,2913
2023-06-13T06:31:53.000Z,2953
2023-06-13T06:33:09.000Z,2967
2023-06-13T06:34:25.000Z,3002
2023-06-13T06:35:41.000Z,3026
2023-06-13T06:36:57.000Z,3048
2023-06-13T06:38:13.000Z,3054
2023-06-13T06:39:29.000Z,3086
2023-06-13T06:40:45.000Z,3126
2023-06-13T06:42:02.000Z,3141
2023-06-13T06:43:18.000Z,3145
2023-06-13T06:44:34.000Z,3217
2023-06-13T06:45:50.000Z,3202
2023-06-13T06:47:06.000Z,3248
2023-06-13T06:48:23.000Z,3249
2023-06-13T06:49:39.000Z,3290
2023-06-13T06:50:55.000Z,3330
2023-06-13T06:52:11.000Z,3355
2023-06-13T06:53:27.000Z,3367
2023-06-13T06:54:43.000Z,3401
2023-06-13T06:55:59.000Z,3433
2023-06-13T06:57:15.000Z,3468
2023-06-13T06:58:32.371Z,3485
2023-06-13T06:59:48.000Z,3528
2023-06-13T07:01:04.000Z,3539
2023-06-13T07:02:20.000Z,3594
2023-06-13T07:03:37.000Z,3614
2023-06-13T07:04:53.000Z,3643
2023-06-13T07:06:09.000Z,3688
2023-06-13T07:07:25.000Z,3724
2023-06-13T07:08:41.000Z,3763
2023-06-13T07:09:58.000Z,3787
2023-06-13T07:11:13.000Z,3819
2023-06-13T07:12:29.000Z,3838
2023-06-13T07:13:45.000Z,3869
2023-06-13T07:15:02.000Z,3917
2023-06-13T07:16:18.000Z,3938
2023-06-13T07:17:34.000Z,3973
2023-06-13T07:18:50.000Z,4012
2023-06-13T07:20:07.000Z,4039
2023-06-13T07:21:23.000Z,4093
2023-06-13T07:22:39.000Z,4111
2023-06-13T07:23:55.000Z,4166
2023-06-13T07:25:12.000Z,4203
2023-06-13T07:26:28.000Z,4234
2023-06-13T07:27:43.000Z,4284
2023-06-13T07:28:59.000Z,4274
2023-06-13T07:30:15.000Z,4315
2023-06-13T07:31:32.000Z,4351
2023-06-13T07:32:48.000Z,4410
2023-06-13T07:34:04.000Z,4436
2023-06-13T07:35:20.000Z,4466
2023-06-13T07:36:37.000Z,4498
2023-06-13T07:37:53.000Z,4508
2023-06-13T07:39:09.000Z,4571
2023-06-13T07:40:25.000Z,4571
2023-06-13T07:41:42.000Z,4617
2023-06-13T07:42:58.000Z,4637
2023-06-13T07:44:13.000Z,4687
2023-06-13T07:45:29.000Z,4710
2023-06-13T07:46:46.000Z,4725
2023-06-13T07:48:02.000Z,4763
2023-06-13T07:49:18.744Z,4806
2023-06-13T07:50:34.000Z,4819
2023-06-13T07:51:50.000Z,4863
2023-06-13T07:53:07.000Z,4899
2023-06-13T07:54:23.000Z,4913
2023-06-13T07:55:39.000Z,4948
2023-06-13T07:56:55.000Z,4978
2023-06-13T07:58:12.000Z,4986
2023-06-13T07:59:28.000Z,5016
2023-06-13T08:00:43.000Z,5037
2023-06-13T08:02:00.091Z,5057
2023-06-13T08:03:16.000Z,5078
2023-06-13T08:04:32.000Z,5087
2023-06-13T08:05:48.000Z,5115
2023-06-13T08:07:04.000Z,5127
2023-06-13T08:08:20.000Z,5155
2023-06-13T08:09:37.000Z,5173
2023-06-13T08:10:53.000Z,5170
2023-06-13T08:12:09.000Z,5209
2023-06-13T08:13:25.000Z,5244
2023-06-13T08:14:42.000Z,5237
2023-06-13T08:15:58.000Z,5271
2023-06-13T08:17:13.000Z,5291
2023-06-13T08:18:29.000Z,5323
2023-06-13T08:19:46.000Z,5347
2023-06-13T08:21:02.000Z,5352
2023-06-13T08:22:18.000Z,5367
2023-06-13T08:23:34.000Z,5421
2023-06-13T08:24:51.000Z,5437
2023-06-13T08:26:07.000Z,5458
2023-06-13T08:27:23.000Z,5502
2023-06-13T08:28:39.000Z,5494
2023-06-13T08:29:55.000Z,5524
2023-06-13T08:31:12.000Z,5542
2023-06-13T08:32:28.000Z,5547
2023-06-13T08:33:43.000Z,5580
2023-06-13T08:34:59.000Z,5614
2023-06-13T08:36:16.000Z,5625
2023-06-13T08:37:32.000Z,5632
2023-06-13T08:38:48.000Z,5633
2023-06-13T08:40:05.117Z,5691
2023-06-13T08:41:21.000Z,5704
2023-06-13T08:42:37.000Z,5736
2023-06-13T08:43:53.000Z,5713
2023-06-13T08:45:09.000Z,5764
2023-06-13T08:46:26.000Z,5773
2023-06-13T08:47:42.000Z,5800
2023-06-13T08:48:58.000Z,5836
2023-06-13T08:50:13.000Z,5809
2023-06-13T08:51:29.000Z,5841
2023-06-13T08:52:46.000Z,5874
2023-06-13T08:54:02.000Z,5914
2023-06-13T08:55:18.000Z,5871
2023-06-13T08:56:34.000Z,5987
2023-06-13T08:57:51.000Z,5973
2023-06-13T08:59:07.000Z,5986
2023-06-13T09:00:23.000Z,6016
2023-06-13T09:01:39.000Z,5999
2023-06-13T09:02:56.328Z,6091
2023-06-13T09:04:12.000Z,6093
2023-06-13T09:05:28.000Z,6165
2023-06-13T09:06:43.000Z,6213
2023-06-13T09:08:00.000Z,6266
2023-06-13T09:09:16.000Z,6368
2023-06-13T09:10:32.000Z,6292
2023-06-13T09:11:48.000Z,6230
2023-06-13T09:13:04.000Z,6234
2023-06-13T09:14:21.000Z,6292
2023-06-13T09:15:37.661Z,6238
2023-06-13T09:16:53.000Z,6341
2023-06-13T09:19:26.000Z,6361
2023-06-13T09:20:42.000Z,6401
2023-06-13T09:21:58.000Z,6441
2023-06-13T09:23:13.000Z,6427
2023-06-13T09:24:30.000Z,6478
2023-06-13T09:25:46.000Z,6519
2023-06-13T09:27:02.000Z,6508
2023-06-13T09:28:18.000Z,6479
2023-06-13T09:29:34.000Z,6562
2023-06-13T09:30:50.516Z,6614
2023-06-13T09:32:06.000Z,6599
2023-06-13T09:33:22.000Z,6627
2023-06-13T09:34:38.000Z,6626
2023-06-13T09:35:55.000Z,6660
2023-06-13T09:37:11.000Z,6694
2023-06-13T09:38:27.000Z,6667
2023-06-13T09:39:43.000Z,6605
2023-06-13T09:41:00.000Z,6689
2023-06-13T09:42:16.000Z,6741
2023-06-13T09:43:32.833Z,6769
2023-06-13T09:44:48.000Z,6765
2023-06-13T09:46:04.000Z,6837
2023-06-13T09:47:20.000Z,6852
2023-06-13T09:48:36.000Z,6880
2023-06-13T09:49:52.000Z,6894
2023-06-13T09:51:09.000Z,6932
2023-06-13T09:52:25.000Z,6926
2023-06-13T09:53:41.000Z,6927
2023-06-13T09:54:57.000Z,6895
2023-06-13T09:56:13.000Z,6904
2023-06-13T09:57:30.000Z,6895
2023-06-13T09:58:46.000Z,6946
2023-06-13T10:00:02.000Z,6968
2023-06-13T10:01:18.000Z,7067
2023-06-13T10:02:34.000Z,7033
2023-06-13T10:03:50.000Z,6987
2023-06-13T10:05:06.000Z,6956
2023-06-13T10:06:22.000Z,6974
2023-06-13T10:07:39.000Z,6937
2023-06-13T10:08:55.000Z,6987
2023-06-13T10:10:11.000Z,7006
2023-06-13T10:11:27.000Z,6989
2023-06-13T10:12:43.000Z,7017
2023-06-13T10:14:00.000Z,7034
2023-06-13T10:15:16.000Z,7050
2023-06-13T10:16:32.000Z,7017
2023-06-13T10:17:48.000Z,7080
2023-06-13T10:19:04.166Z,7171
2023-06-13T10:20:20.000Z,7100
2023-06-13T10:21:36.893Z,7087
2023-06-13T10:22:52.000Z,7078
2023-06-13T10:24:09.000Z,7132
2023-06-13T10:25:25.000Z,7130
2023-06-13T10:26:41.000Z,7191
2023-06-13T10:27:57.000Z,7188
2023-06-13T10:29:14.000Z,7175
2023-06-13T10:30:30.000Z,7085
2023-06-13T10:31:46.000Z,7200
2023-06-13T10:33:02.000Z,7152
2023-06-13T10:34:18.000Z,7184
2023-06-13T10:35:34.000Z,7148
2023-06-13T10:36:50.000Z,7216
2023-06-13T10:38:06.000Z,7128
2023-06-13T10:39:22.000Z,7170
2023-06-13T10:40:39.000Z,7141
2023-06-13T10:41:55.000Z,7160
2023-06-13T10:43:11.000Z,7182
2023-06-13T10:44:27.000Z,7200
2023-06-13T10:45:44.000Z,7157
2023-06-13T10:47:00.000Z,7106
2023-06-13T10:48:16.000Z,7133
2023-06-13T10:49:33.046Z,7113
2023-06-13T10:50:49.000Z,7098
2023-06-13T10:52:04.000Z,7223
2023-06-13T10:53:20.000Z,7157
2023-06-13T10:54:36.000Z,7055
2023-06-13T10:55:52.000Z,7051
2023-06-13T10:57:09.000Z,7115
2023-06-13T10:58:25.000Z,7049
2023-06-13T11:00:57.000Z,7141
2023-06-13T11:02:14.000Z,7081
2023-06-13T11:03:30.000Z,7094
2023-06-13T11:04:46.000Z,7078
2023-06-13T11:06:02.000Z,7126
2023-06-13T11:07:19.000Z,7102
2023-06-13T11:08:34.000Z,7103
2023-06-13T11:09:50.781Z,7155
2023-06-13T11:11:06.000Z,7085
2023-06-13T11:12:23.000Z,7046
2023-06-13T11:13:39.000Z,6991
2023-06-13T11:14:55.000Z,7032
2023-06-13T11:16:11.000Z,6859
2023-06-13T11:17:27.000Z,6843
2023-06-13T11:18:44.000Z,6870
2023-06-13T11:20:00.000Z,6819
2023-06-13T11:21:16.000Z,6820
2023-06-13T11:22:32.000Z,6784
2023-06-13T11:23:49.000Z,6762
2023-06-13T11:25:04.000Z,6718
2023-06-13T11:26:20.000Z,6743
2023-06-13T11:27:36.000Z,6785
2023-06-13T11:28:53.059Z,6710
2023-06-13T11:30:09.000Z,6646
2023-06-13T11:31:25.000Z,6748
2023-06-13T11:32:41.000Z,6570
2023-06-13T11:33:57.000Z,6531
2023-06-13T11:35:14.000Z,6478
2023-06-13T11:36:30.000Z,6343
2023-06-13T11:37:46.000Z,6274
2023-06-13T11:39:02.000Z,6214
2023-06-13T11:40:19.000Z,6154
2023-06-13T11:41:34.000Z,6138
2023-06-13T11:42:50.000Z,6096
2023-06-13T11:44:06.000Z,6014
2023-06-13T11:45:23.000Z,5964
2023-06-13T11:46:39.000Z,5889
2023-06-13T11:47:55.000Z,5839
2023-06-13T11:49:11.000Z,5783
2023-06-13T11:51:44.000Z,5827
2023-06-13T11:53:00.000Z,5858
2023-06-13T11:54:16.000Z,5786
2023-06-13T11:55:32.000Z,5877
2023-06-13T11:56:49.000Z,5911
2023-06-13T11:58:04.000Z,5909
2023-06-13T11:59:20.000Z,5953
2023-06-13T12:00:36.000Z,5945
2023-06-13T12:01:53.000Z,5912
2023-06-13T12:03:09.652Z,5860
2023-06-13T12:04:25.000Z,5828
2023-06-13T12:05:41.000Z,5907
2023-06-13T12:06:58.000Z,5962
2023-06-13T12:08:14.000Z,5965
2023-06-13T12:09:30.000Z,5919
2023-06-13T12:10:46.000Z,5768
2023-06-13T12:12:03.000Z,5869
2023-06-13T12:13:19.499Z,5851
2023-06-13T12:14:34.000Z,5806
2023-06-13T12:15:50.000Z,5804
2023-06-13T12:17:06.000Z,5851
2023-06-13T12:18:23.000Z,5858
2023-06-13T12:19:39.000Z,5789
2023-06-13T12:20:55.000Z,5724
2023-06-13T12:22:11.000Z,5803
2023-06-13T12:23:28.000Z,5838
2023-06-13T12:24:44.000Z,5844
2023-06-13T12:26:00.000Z,5761
2023-06-13T12:27:16.000Z,5668
2023-06-13T12:28:33.000Z,5631
2023-06-13T12:29:49.000Z,5576
2023-06-13T12:31:04.000Z,5590
2023-06-13T12:32:20.000Z,5602
2023-06-13T12:33:37.000Z,5595
2023-06-13T12:34:53.000Z,5588
2023-06-13T12:36:09.000Z,5610
2023-06-13T12:37:25.000Z,5526
2023-06-13T12:38:41.000Z,5488
2023-06-13T12:39:58.000Z,5515
2023-06-13T12:41:14.000Z,5502
2023-06-13T12:42:30.000Z,5500
2023-06-13T12:43:46.000Z,5543
2023-06-13T12:45:03.000Z,5597
2023-06-13T12:46:19.000Z,5509
2023-06-13T12:47:34.858Z,5514
2023-06-13T12:48:50.000Z,5532
2023-06-13T12:50:07.000Z,5526
2023-06-13T12:51:23.000Z,5525
2023-06-13T12:52:39.000Z,5517
2023-06-13T12:53:55.000Z,5554
2023-06-13T12:55:12.000Z,5497
2023-06-13T12:56:28.000Z,5534
2023-06-13T12:57:44.000Z,5513
2023-06-13T12:59:00.000Z,5508
2023-06-13T13:00:16.000Z,5512
2023-06-13T13:01:33.000Z,5504
2023-06-13T13:02:49.000Z,5457
2023-06-13T13:04:04.000Z,5437
2023-06-13T13:05:20.000Z,5472
2023-06-13T13:06:37.000Z,5384
2023-06-13T13:07:53.000Z,5422
2023-06-13T13:09:09.000Z,5366
2023-06-13T13:10:25.000Z,5416
2023-06-13T13:11:42.000Z,5342
2023-06-13T13:12:58.000Z,5317
2023-06-13T13:14:14.000Z,5291
2023-06-13T13:15:30.000Z,5300
2023-06-13T13:16:47.000Z,5283
2023-06-13T13:18:03.000Z,5248
2023-06-13T13:20:35.000Z,5175
2023-06-13T13:21:50.000Z,5159
2023-06-13T13:23:07.000Z,5194
2023-06-13T13:24:23.000Z,5167
2023-06-13T13:25:39.000Z,5121
2023-06-13T13:26:55.000Z,5136
2023-06-13T13:28:12.000Z,5054
2023-06-13T13:29:28.000Z,5024
2023-06-13T13:30:44.000Z,5018
2023-06-13T13:32:00.000Z,4947
2023-06-13T13:33:17.000Z,4981
2023-06-13T13:34:33.000Z,4979
2023-06-13T13:35:49.000Z,4932
2023-06-13T13:37:05.000Z,4932
2023-06-13T13:38:21.000Z,4916
2023-06-13T13:39:37.000Z,4879
2023-06-13T13:40:53.000Z,4813
2023-06-13T13:42:09.000Z,4789
2023-06-13T13:43:25.000Z,4775
2023-06-13T13:44:41.000Z,4741
2023-06-13T13:45:57.000Z,4665
2023-06-13T13:47:13.913Z,4640
2023-06-13T13:48:29.000Z,4615
2023-06-13T13:49:46.000Z,4557
2023-06-13T13:51:02.000Z,4511
2023-06-13T13:52:18.000Z,4548
2023-06-13T13:53:34.000Z,4480
2023-06-13T13:54:51.309Z,4426
2023-06-13T13:56:07.000Z,4905
2023-06-13T13:58:39.000Z,4336
2023-06-13T13:59:56.000Z,4375
2023-06-13T14:01:11.000Z,2932
2023-06-13T14:02:27.000Z,3690
2023-06-13T14:03:43.000Z,3629
2023-06-13T14:04:59.000Z,4154
2023-06-13T14:06:16.000Z,4168
2023-06-13T14:07:32.678Z,4154
2023-06-13T14:08:48.000Z,4184
2023-06-13T14:10:04.000Z,4122
2023-06-13T14:11:21.000Z,4104
2023-06-13T14:12:37.000Z,4253
2023-06-13T14:13:53.000Z,3551
2023-06-13T14:15:09.000Z,3861
2023-06-13T14:16:26.000Z,3797
2023-06-13T14:17:41.000Z,3743
2023-06-13T14:18:57.000Z,3760
2023-06-13T14:20:13.000Z,3879
2023-06-13T14:21:30.000Z,3817
2023-06-13T14:24:02.000Z,3676
2023-06-13T14:25:18.000Z,3668
2023-06-13T14:26:34.000Z,3613
2023-06-13T14:27:51.000Z,3582
2023-06-13T14:29:07.000Z,3541
2023-06-13T14:30:23.870Z,3498
2023-06-13T14:31:39.000Z,3477
2023-06-13T14:32:56.000Z,3472
2023-06-13T14:34:11.000Z,3458
2023-06-13T14:35:27.000Z,3441
2023-06-13T14:36:43.000Z,3412
2023-06-13T14:38:00.000Z,3391
2023-06-13T14:39:16.000Z,3335
2023-06-13T14:40:32.000Z,3386
2023-06-13T14:41:48.000Z,3354
2023-06-13T14:43:04.000Z,3324
2023-06-13T14:44:21.000Z,3257
2023-06-13T14:45:37.000Z,3387
2023-06-13T14:46:53.000Z,2952
2023-06-13T14:48:09.000Z,3219
2023-06-13T14:49:26.000Z,3038
2023-06-13T14:50:41.000Z,2473
2023-06-13T14:51:57.000Z,2511
2023-06-13T14:53:13.000Z,1890
2023-06-13T14:54:30.000Z,3347
2023-06-13T14:55:46.000Z,2415
2023-06-13T14:57:02.000Z,3235
2023-06-13T14:58:18.000Z,3236
2023-06-13T14:59:35.000Z,3251
2023-06-13T15:00:51.000Z,3271
2023-06-13T15:02:07.000Z,3141
2023-06-13T15:03:23.000Z,3326
2023-06-13T15:04:39.000Z,2756
2023-06-13T15:05:56.000Z,2337
2023-06-13T15:07:11.000Z,1749
2023-06-13T15:08:27.000Z,2970
2023-06-13T15:09:43.000Z,3016
2023-06-13T15:11:00.394Z,2953
2023-06-13T15:12:16.000Z,2917
2023-06-13T15:13:32.000Z,2905
2023-06-13T15:14:48.000Z,2868
2023-06-13T15:16:05.000Z,2870
2023-06-13T15:17:21.000Z,2828
2023-06-13T15:18:37.000Z,2803
2023-06-13T15:19:53.000Z,2755
2023-06-13T15:21:10.000Z,2679
2023-06-13T15:22:26.000Z,1708
2023-06-13T15:23:41.000Z,2718
2023-06-13T15:24:57.000Z,2711
2023-06-13T15:26:14.216Z,2746
2023-06-13T15:27:30.000Z,2746
2023-06-13T15:28:46.000Z,2769
2023-06-13T15:30:02.000Z,2744
2023-06-13T15:31:18.000Z,2758
2023-06-13T15:32:35.000Z,2786
2023-06-13T15:33:51.000Z,2787
2023-06-13T15:35:07.000Z,2765
2023-06-13T15:36:23.000Z,2733
2023-06-13T15:37:40.000Z,2746
2023-06-13T15:38:56.000Z,2749
2023-06-13T15:40:11.000Z,2734
2023-06-13T15:41:27.000Z,2711
2023-06-13T15:42:44.000Z,2677
2023-06-13T15:44:00.000Z,2594
2023-06-13T15:45:16.000Z,2579
2023-06-13T15:46:32.000Z,2640
2023-06-13T15:47:48.000Z,2647
2023-06-13T15:49:05.000Z,2627
2023-06-13T15:50:21.000Z,2597
2023-06-13T15:51:37.000Z,2561
2023-06-13T15:52:53.000Z,2525
2023-06-13T15:54:10.000Z,2497
2023-06-13T15:55:26.000Z,2464
2023-06-13T15:56:41.000Z,2412
2023-06-13T15:57:57.000Z,2417
2023-06-13T15:59:14.000Z,2407
2023-06-13T16:00:30.000Z,2402
2023-06-13T16:01:46.000Z,2391
2023-06-13T16:03:02.000Z,2381
2023-06-13T16:04:19.000Z,2394
2023-06-13T16:06:51.000Z,2275
2023-06-13T16:08:07.000Z,2296
2023-06-13T16:09:23.000Z,2284
2023-06-13T16:10:40.000Z,2245
2023-06-13T16:11:56.000Z,2233
2023-06-13T16:13:11.000Z,2219
2023-06-13T16:14:27.000Z,2220
2023-06-13T16:15:44.000Z,2199
2023-06-13T16:17:00.597Z,2169
2023-06-13T16:18:16.000Z,2172
2023-06-13T16:19:32.000Z,2164
2023-06-13T16:20:49.000Z,2163
2023-06-13T16:22:05.000Z,2146
2023-06-13T16:23:21.000Z,2143
2023-06-13T16:24:37.000Z,2129
2023-06-13T16:25:53.000Z,2126
2023-06-13T16:27:10.000Z,2108
2023-06-13T16:28:26.000Z,2093
2023-06-13T16:29:41.000Z,2089
2023-06-13T16:30:57.000Z,2099
2023-06-13T16:32:14.000Z,2091
2023-06-13T16:33:30.000Z,2071
2023-06-13T16:34:46.000Z,2060
2023-06-13T16:36:02.000Z,2051
2023-06-13T16:37:19.000Z,2028
2023-06-13T16:38:35.000Z,2005
2023-06-13T16:39:51.000Z,1970
2023-06-13T16:41:07.000Z,1966
2023-06-13T16:43:40.000Z,1967
2023-06-13T16:44:56.000Z,1957
2023-06-13T16:46:12.000Z,1933
2023-06-13T16:47:27.000Z,1900
2023-06-13T16:48:44.000Z,1900
2023-06-13T16:50:00.000Z,1895
2023-06-13T16:51:16.000Z,1889
2023-06-13T16:52:32.000Z,1872
2023-06-13T16:53:49.000Z,1878
2023-06-13T16:55:05.654Z,1867
2023-06-13T16:56:21.000Z,1866
2023-06-13T16:57:37.000Z,1852
2023-06-13T16:58:54.000Z,1830
2023-06-13T17:00:10.000Z,1821
2023-06-13T17:01:26.000Z,1818
2023-06-13T17:02:42.000Z,1812
2023-06-13T17:03:59.000Z,1803
2023-06-13T17:05:14.000Z,1800
2023-06-13T17:06:30.000Z,1780
2023-06-13T17:07:46.000Z,1769
2023-06-13T17:09:02.000Z,1752
2023-06-13T17:10:19.000Z,1738
2023-06-13T17:11:35.000Z,1728
2023-06-13T17:12:51.000Z,1714
2023-06-13T17:14:07.000Z,1701
2023-06-13T17:15:24.000Z,1686
2023-06-13T17:16:40.000Z,1673
2023-06-13T17:17:56.000Z,1655
2023-06-13T17:19:12.000Z,1639
2023-06-13T17:20:29.000Z,1624
2023-06-13T17:21:44.000Z,1608
2023-06-13T17:23:00.000Z,1593
2023-06-13T17:24:16.000Z,1572
2023-06-13T17:25:33.000Z,1553
2023-06-13T17:26:49.000Z,1543